Kalamazoo, MI (49001)

3:42 PM EST on February 12, 2016 (GMT -0500)
Lawndale Ave | | Change Station
CLOSE
Current Station
Personal Weather Station
Location: Kalamazoo, MI
Elevation: 801 ft
Nearby Weather Stations
Active Advisory: Winter Weather Advisory Active Notice: Local Storm Report

Elev 801 ft 42.28 °N, 85.48 °W | Updated 48 seconds ago

Snow
Snow
21.0 °F
Feels Like 16 °F
N
3.4
Wind Variable Wind from West
Gusts 4.9 mph

Today
High -- | Low -- °F
--% Chance of Precip.
Yesterday
High -- | Low -- °F
Precip. -- in
Pressure 30.08 in
Visibility 2.0 miles
Clouds Mostly Cloudy 2200 ft
Mostly Cloudy 3000 ft
Overcast 6000 ft
Windchill 16 °F
Dew Point 10 °F
Humidity 61%
Rainfall 0.00 in
Snow Depth Not available.
7:42 AM 6:09 PM
Waxing Crescent, 23% visible
METAR KAZO 121953Z 31018G28KT 2SM -SN BKN022 BKN030 OVC060 M07/M12 A3002 RMK AO2 PK WND 30029/1932 SLP185 P0000 T10721117
Pressure 30.08 in
Visibility 2.0 miles
Clouds Mostly Cloudy 2200 ft
Mostly Cloudy 3000 ft
Overcast 6000 ft
Windchill 16 °F
Dew Point 10 °F
Humidity 61%
Rainfall 0.00 in
Snow Depth Not available.
7:42 AM 6:09 PM
Waxing Crescent, 23% visible
METAR KAZO 121953Z 31018G28KT 2SM -SN BKN022 BKN030 OVC060 M07/M12 A3002 RMK AO2 PK WND 30029/1932 SLP185 P0000 T10721117

10-Day Weather Forecast

Almanac

Astronomy

Feb. 12, 2016 Rise Set
Actual Time
Civil Twilight
Nautical Twilight
Astronomical Twilight
Moon
Length of Visible Light
Length of Day
Tomorrow will be .
, % of the Moon is Illuminated

Today's Extremes

State Highs State Lows

Community

WunderPhotos

Upload Photos

1,892,389 photos uploaded!

WunderBlog® & News

Nearby

Air Quality

  Air Quality AQ Index Pollutant
Not available.

Snow Depth

Station Depth Elevation

Earthquake Activity

City Distance Mag. Time & Date
Minimum magnitude displayed is 2.5.

Coastal Water Temperatures

Place Temperature

Stations

Nearby Weather Stations

Station Location Temp. Windchill Dew Point Humidity Wind Precip. Elev Updated Type
                   

Watches & Warnings

Winter Weather Advisory
Issued: 3:10 PM EST Feb. 12, 2016 – National Weather Service

... Winter Weather Advisory remains in effect until 4 PM EST
Saturday...

Hazardous weather...

* snow continuing and becoming heavier this evening.

* Intense snow burst around 4 PM near Route 10 and around 6 PM
   I-96.

* Visibility drops to a few car lengths... continuing overnight.

* Additional 2 to 5 inches of snow mainly falling overnight.

* Storm total snowfall 4 to 7 inches.

Impacts...

* hazardous travel from mid morning Friday through Saturday
   evening.

* Accidents and slideoffs due to slippery roads and low
   visibilities.

* Closures and cancellations.

Precautionary/preparedness actions...

* the Michigan Department of Transportation reminds motorists
   to adjust speeds based on the conditions... and to take it
   slow in ice and snow.